VVDN/DAD METAR and TAF weather

Enter ICAO airport designator
Station Type Date Time Source
VVDN METAR 2019/04/25 07:30 UTC NOAA

VVDN 250730Z 12011KT 9999 FEW015 31/23 Q1007 NOSIG


Station Type Date Time Source
VVDN Decoded METAR 2019/04/25 07:30 UTC NOAA

Da Nang, Vietnam (VVDN) 16-02N 108-11E 7M
Apr 25, 2019 - 03:30 AM EDT / 2019.04.25 0730 UTC
Wind: from the ESE (120 degrees) at 13 MPH (11 KT):0
Visibility: greater than 7 mile(s):0
Sky conditions: mostly clear
Temperature: 87 F (31 C)
Heat index: 93.9 F (34.4 C):1
Dew Point: 73 F (23 C)
Relative Humidity: 62%
Pressure (altimeter): 29.74 in. Hg (1007 hPa)
ob: VVDN 250730Z 12011KT 9999 FEW015 31/23 Q1007 NOSIG
cycle: 7

Station Type Date Time Source
VVDN TAF 2019/04/25 06:36 UTC NOAA

TAF VVDN 250500Z 2506/2606 12010KT 8000 FEW017
TEMPO 2509/2512 TS FEW015 FEW017CB SCT060
BECMG 2514/2515 20004KT
BECMG 2602/2603 12010KT

Example: see airport list